Time;durP1;ratioP1;P1;durP2;ratioP2;P2;SDS_P1;SDS_P2;PMS_P1;PMS_P2;Temp;Humidity;BMP_temperature;BMP_pressure;BME280_temperature;BME280_humidity;BME280_pressure;Samples;Min_cycle;Max_cycle;Signal;HPM_P1;HPM_P2
2021/08/23 00:02:08;;;;;;;4.60;2.72;;;16.10;39.70;;;;;;5100285;28;20050;-69
2021/08/23 00:04:57;;;;;;;8.88;3.30;;;16.10;40.80;;;;;;5104763;28;20135;-69
2021/08/23 00:07:46;;;;;;;5.40;3.33;;;16.10;41.00;;;;;;5103192;28;20118;-69
2021/08/23 00:10:34;;;;;;;5.47;3.25;;;16.10;40.90;;;;;;5101640;27;20165;-69
2021/08/23 00:13:23;;;;;;;7.20;3.60;;;16.10;40.00;;;;;;5084104;28;20071;-69
2021/08/23 00:16:11;;;;;;;4.82;3.50;;;16.10;40.80;;;;;;5084977;28;20139;-69
2021/08/23 00:19:01;;;;;;;5.32;3.15;;;16.10;40.50;;;;;;5084901;28;20062;-69
2021/08/23 00:22:00;;;;;;;5.80;3.08;;;16.10;40.10;;;;;;5080459;28;20041;-71
2021/08/23 00:24:49;;;;;;;9.75;3.60;;;16.10;41.00;;;;;;5085851;28;20044;-70
2021/08/23 00:27:38;;;;;;;5.70;2.83;;;16.10;40.20;;;;;;5087137;28;20040;-69
2021/08/23 00:30:29;;;;;;;3.80;2.92;;;16.10;40.10;;;;;;5081688;28;20455;-70
2021/08/23 00:33:18;;;;;;;7.05;3.35;;;16.10;41.60;;;;;;5081603;28;20039;-69
2021/08/23 00:36:08;;;;;;;5.32;3.35;;;16.10;42.40;;;;;;5083668;28;20118;-69
2021/08/23 00:38:56;;;;;;;5.65;3.40;;;16.10;42.40;;;;;;5082243;28;20116;-69
2021/08/23 00:41:45;;;;;;;5.00;3.03;;;16.10;43.70;;;;;;5074785;28;20130;-69
2021/08/23 00:44:35;;;;;;;6.45;3.13;;;16.00;45.30;;;;;;5083403;28;20125;-69
2021/08/23 00:47:23;;;;;;;6.85;3.00;;;16.00;46.90;;;;;;5082536;28;20507;-70
2021/08/23 00:50:13;;;;;;;8.27;3.38;;;15.90;46.30;;;;;;5080110;28;21112;-69
2021/08/23 00:53:03;;;;;;;5.32;3.13;;;15.90;48.20;;;;;;5084736;28;20055;-70
2021/08/23 00:55:52;;;;;;;4.57;2.90;;;15.80;48.30;;;;;;5083973;28;20040;-70
2021/08/23 00:58:41;;;;;;;6.53;3.17;;;15.80;46.70;;;;;;5083947;28;20174;-70
2021/08/23 01:01:38;;;;;;;7.05;3.65;;;15.80;48.00;;;;;;5104076;28;20063;-70
2021/08/23 01:04:35;;;;;;;4.70;3.45;;;15.80;47.30;;;;;;5103159;28;20071;-70
2021/08/23 01:07:27;;;;;;;5.45;3.50;;;15.90;49.50;;;;;;5103662;28;20056;-70
2021/08/23 01:10:20;;;;;;;4.43;3.70;;;15.90;47.60;;;;;;5101162;27;20040;-70
2021/08/23 01:13:09;;;;;;;5.68;3.67;;;15.90;48.80;;;;;;5100814;28;20510;-70
2021/08/23 01:15:58;;;;;;;4.30;3.45;;;15.90;46.50;;;;;;5103433;28;20172;-70
2021/08/23 01:18:46;;;;;;;8.18;3.58;;;15.90;48.10;;;;;;5100019;28;20043;-70
2021/08/23 01:21:35;;;;;;;5.82;3.40;;;15.90;47.50;;;;;;5099270;28;20051;-69
2021/08/23 01:24:26;;;;;;;8.45;3.35;;;15.90;46.50;;;;;;5106068;28;20060;-69
2021/08/23 01:27:16;;;;;;;6.05;3.17;;;15.80;48.20;;;;;;5104164;28;20047;-69
2021/08/23 01:30:09;;;;;;;4.05;3.00;;;15.80;48.50;;;;;;5086070;28;20040;-69
2021/08/23 01:32:58;;;;;;;4.82;3.03;;;15.80;49.50;;;;;;5100481;28;20412;-69
2021/08/23 01:35:47;;;;;;;6.30;3.55;;;15.70;50.50;;;;;;5103118;28;20529;-69
2021/08/23 01:38:36;;;;;;;4.85;3.67;;;15.70;51.40;;;;;;5103005;28;20036;-69
2021/08/23 01:41:24;;;;;;;8.27;3.50;;;15.70;52.50;;;;;;5103157;28;20055;-69
2021/08/23 01:44:12;;;;;;;7.15;4.30;;;15.70;51.30;;;;;;5101804;28;20410;-69
2021/08/23 01:47:01;;;;;;;6.82;3.67;;;15.70;51.30;;;;;;5098252;28;20040;-69
2021/08/23 01:49:51;;;;;;;8.50;4.15;;;15.70;50.40;;;;;;5101423;28;20039;-69
2021/08/23 01:52:43;;;;;;;8.10;4.10;;;15.70;51.50;;;;;;5105568;28;20046;-69
2021/08/23 01:55:31;;;;;;;5.93;3.85;;;15.80;50.80;;;;;;5094174;28;20043;-69
2021/08/23 01:58:20;;;;;;;6.18;3.50;;;15.80;50.50;;;;;;5105241;28;20066;-69
2021/08/23 02:01:08;;;;;;;6.50;2.95;;;15.80;50.00;;;;;;5103292;28;20051;-70
2021/08/23 02:03:57;;;;;;;9.70;3.58;;;15.80;49.50;;;;;;5105222;28;20039;-70
2021/08/23 02:06:46;;;;;;;6.93;3.38;;;15.80;48.70;;;;;;5105419;28;20044;-70
2021/08/23 02:09:35;;;;;;;8.18;3.47;;;15.80;48.80;;;;;;5104475;28;20113;-70
2021/08/23 02:12:23;;;;;;;5.43;3.28;;;15.80;50.50;;;;;;5104178;28;20044;-70
2021/08/23 02:15:12;;;;;;;4.88;3.60;;;15.80;51.00;;;;;;5109124;28;20048;-70
2021/08/23 02:18:00;;;;;;;4.30;3.15;;;15.80;52.10;;;;;;5105952;28;20041;-70
2021/08/23 02:20:48;;;;;;;7.88;4.20;;;15.70;51.50;;;;;;5103739;28;20403;-70
2021/08/23 02:23:38;;;;;;;5.00;3.80;;;15.70;52.90;;;;;;5104736;28;20052;-70
2021/08/23 02:26:26;;;;;;;6.32;3.60;;;15.70;52.80;;;;;;5106988;27;20050;-71
2021/08/23 02:29:15;;;;;;;7.35;3.97;;;15.70;53.60;;;;;;5102989;28;20490;-70
2021/08/23 02:32:03;;;;;;;5.07;3.47;;;15.60;53.80;;;;;;5103720;28;20059;-70
2021/08/23 02:34:52;;;;;;;6.50;4.53;;;15.70;54.50;;;;;;5108434;28;20039;-70
2021/08/23 02:37:41;;;;;;;6.38;4.22;;;15.60;54.50;;;;;;5107918;28;20119;-70
2021/08/23 02:40:30;;;;;;;8.32;4.13;;;15.60;54.30;;;;;;5103118;28;20044;-70
2021/08/23 02:43:19;;;;;;;5.38;3.95;;;15.70;55.10;;;;;;5091369;28;20051;-70
2021/08/23 02:46:07;;;;;;;9.60;3.78;;;15.70;54.50;;;;;;5105967;28;20051;-70
2021/08/23 02:48:55;;;;;;;5.10;3.65;;;15.70;54.40;;;;;;5107713;28;20043;-70
2021/08/23 02:51:45;;;;;;;10.00;4.53;;;15.70;53.60;;;;;;5098317;28;20052;-69
2021/08/23 02:54:33;;;;;;;8.18;4.63;;;15.80;54.60;;;;;;5102676;28;20051;-70
2021/08/23 02:57:23;;;;;;;8.77;4.30;;;15.70;54.50;;;;;;5104514;28;20047;-70
2021/08/23 03:00:12;;;;;;;4.10;3.40;;;15.80;54.40;;;;;;5103075;28;20043;-70
2021/08/23 03:03:00;;;;;;;9.30;3.90;;;15.80;52.20;;;;;;5104858;28;20035;-70
2021/08/23 03:05:49;;;;;;;5.20;3.42;;;15.80;52.10;;;;;;5102495;28;20050;-70
2021/08/23 03:08:37;;;;;;;4.10;3.50;;;15.70;51.40;;;;;;5105772;28;20047;-70
2021/08/23 03:11:26;;;;;;;6.45;3.50;;;15.80;53.10;;;;;;5105972;27;20059;-70
2021/08/23 03:14:16;;;;;;;4.90;3.47;;;15.80;53.50;;;;;;5100061;28;20040;-70
2021/08/23 03:17:04;;;;;;;4.93;3.35;;;15.70;54.50;;;;;;5103838;28;20044;-69
2021/08/23 03:19:52;;;;;;;6.25;3.47;;;15.70;54.00;;;;;;5105863;27;20054;-69
2021/08/23 03:22:41;;;;;;;7.05;3.65;;;15.70;54.50;;;;;;5105659;28;20044;-69
2021/08/23 03:25:29;;;;;;;4.93;3.58;;;15.70;53.70;;;;;;5102962;28;20548;-69
2021/08/23 03:28:17;;;;;;;5.43;3.40;;;15.70;53.10;;;;;;5104117;28;20040;-69
2021/08/23 03:31:07;;;;;;;6.07;3.58;;;15.80;52.00;;;;;;5080895;28;20040;-69
2021/08/23 03:33:56;;;;;;;5.15;3.13;;;15.80;49.20;;;;;;5107205;28;20066;-69
2021/08/23 03:36:46;;;;;;;7.15;3.42;;;15.90;50.20;;;;;;5107706;27;20658;-69
2021/08/23 03:39:34;;;;;;;6.85;3.47;;;15.90;51.50;;;;;;5103434;28;20043;-69
2021/08/23 03:42:23;;;;;;;5.13;3.30;;;15.90;51.50;;;;;;5102986;28;20498;-69
2021/08/23 03:45:11;;;;;;;8.25;3.33;;;15.90;50.70;;;;;;5103300;28;20063;-69
2021/08/23 03:48:02;;;;;;;5.95;3.35;;;15.90;50.60;;;;;;5105149;28;20046;-69
2021/08/23 03:50:51;;;;;;;7.25;3.75;;;15.90;51.60;;;;;;5080399;28;20046;-69
2021/08/23 03:53:39;;;;;;;3.53;2.83;;;15.80;52.60;;;;;;5093392;28;20060;-71
2021/08/23 03:56:28;;;;;;;6.57;3.22;;;15.80;50.40;;;;;;5080188;28;20047;-71
2021/08/23 03:59:17;;;;;;;3.75;2.90;;;15.90;50.80;;;;;;5083704;28;20054;-71
2021/08/23 04:02:05;;;;;;;6.10;2.88;;;15.90;50.70;;;;;;5082698;28;20048;-71
2021/08/23 04:04:55;;;;;;;7.07;2.95;;;15.80;48.50;;;;;;5090897;27;20042;-70
2021/08/23 04:07:43;;;;;;;4.35;2.80;;;15.80;47.90;;;;;;5105471;28;20051;-69
2021/08/23 04:10:31;;;;;;;4.63;3.38;;;15.80;50.50;;;;;;5103315;28;20058;-69
2021/08/23 04:13:20;;;;;;;4.80;3.35;;;15.80;53.30;;;;;;5099419;28;20047;-69
2021/08/23 04:16:11;;;;;;;7.15;3.90;;;15.80;53.80;;;;;;5103308;28;20123;-69
2021/08/23 04:18:59;;;;;;;6.43;3.50;;;15.80;53.70;;;;;;5106851;28;20058;-69
2021/08/23 04:21:49;;;;;;;10.75;3.88;;;15.80;54.60;;;;;;5083213;28;20502;-69
2021/08/23 04:24:38;;;;;;;6.60;3.60;;;15.80;54.60;;;;;;5083042;28;20052;-70
2021/08/23 04:27:26;;;;;;;6.45;3.22;;;15.80;56.40;;;;;;5082241;28;20388;-69
2021/08/23 04:30:15;;;;;;;7.18;4.53;;;15.70;57.10;;;;;;5086105;28;20052;-69
2021/08/23 04:33:04;;;;;;;4.10;3.55;;;15.70;58.60;;;;;;5085476;28;20044;-69
2021/08/23 04:35:52;;;;;;;8.13;4.43;;;15.60;58.50;;;;;;5083939;28;20055;-69
2021/08/23 04:38:42;;;;;;;6.40;4.35;;;15.70;59.10;;;;;;5085451;28;20514;-69
2021/08/23 04:41:36;;;;;;;5.68;3.95;;;15.60;58.40;;;;;;5084167;28;20735;-69
2021/08/23 04:44:24;;;;;;;5.50;3.80;;;15.70;59.50;;;;;;5084513;28;20534;-69
2021/08/23 04:47:13;;;;;;;6.82;4.15;;;15.60;58.50;;;;;;5085063;28;20043;-69
2021/08/23 04:50:01;;;;;;;5.38;4.28;;;15.50;58.10;;;;;;5080301;28;20134;-69
2021/08/23 04:52:50;;;;;;;4.80;3.58;;;15.50;58.70;;;;;;5084391;28;20510;-70
2021/08/23 04:55:40;;;;;;;7.97;4.00;;;15.60;59.00;;;;;;5086557;28;20040;-69
2021/08/23 04:58:28;;;;;;;7.00;4.00;;;15.60;58.80;;;;;;5082335;28;20054;-69
2021/08/23 05:01:16;;;;;;;5.60;4.05;;;15.70;59.50;;;;;;5076962;28;20505;-69
2021/08/23 05:04:05;;;;;;;5.72;4.25;;;15.60;58.40;;;;;;5085946;28;20044;-70
2021/08/23 05:06:53;;;;;;;7.50;3.97;;;15.70;59.10;;;;;;5085115;28;20064;-70
2021/08/23 05:09:42;;;;;;;4.57;3.78;;;15.70;58.90;;;;;;5080907;28;20491;-70
2021/08/23 05:12:31;;;;;;;8.30;4.22;;;15.70;59.80;;;;;;5081941;28;20039;-70
2021/08/23 05:15:20;;;;;;;5.30;3.40;;;15.60;57.60;;;;;;5082923;28;21488;-70
2021/08/23 05:18:09;;;;;;;6.13;3.30;;;15.70;57.50;;;;;;5084766;28;20043;-70
2021/08/23 05:20:58;;;;;;;6.03;3.55;;;15.70;55.70;;;;;;5078532;28;20035;-70
2021/08/23 05:23:47;;;;;;;6.20;3.80;;;15.70;54.50;;;;;;5084334;28;20036;-71
2021/08/23 05:26:38;;;;;;;12.93;3.50;;;15.70;54.50;;;;;;5084149;28;20054;-70
2021/08/23 05:29:27;;;;;;;4.63;2.83;;;15.60;53.30;;;;;;5082010;28;20486;-70
2021/08/23 05:32:17;;;;;;;7.40;3.42;;;15.70;54.50;;;;;;5078044;28;20055;-70
2021/08/23 05:35:07;;;;;;;13.63;4.20;;;15.70;53.60;;;;;;5080989;28;20048;-70
2021/08/23 05:37:56;;;;;;;16.75;4.32;;;15.60;53.00;;;;;;5083579;28;20040;-70
2021/08/23 05:40:44;;;;;;;6.50;3.88;;;15.70;54.50;;;;;;5080699;28;20063;-70
2021/08/23 05:43:32;;;;;;;16.63;3.83;;;15.70;54.30;;;;;;5085017;28;20044;-70
2021/08/23 05:46:24;;;;;;;6.70;3.60;;;15.70;54.50;;;;;;5082057;28;20056;-70
2021/08/23 05:49:13;;;;;;;6.75;3.65;;;15.80;56.10;;;;;;5076776;28;20526;-69
2021/08/23 05:52:01;;;;;;;14.32;3.83;;;15.90;55.30;;;;;;5081362;28;20043;-70
2021/08/23 05:54:50;;;;;;;26.63;4.15;;;15.80;52.10;;;;;;5084229;28;20414;-70
2021/08/23 05:57:39;;;;;;;12.55;3.60;;;15.80;53.20;;;;;;5081630;28;20404;-70
2021/08/23 06:00:28;;;;;;;17.20;4.07;;;15.80;54.10;;;;;;5082129;28;20047;-70
2021/08/23 06:03:18;;;;;;;4.45;3.13;;;16.00;55.80;;;;;;5082814;28;20044;-70
2021/08/23 06:06:07;;;;;;;8.05;3.90;;;16.00;54.30;;;;;;5081559;28;20255;-70
2021/08/23 06:08:55;;;;;;;9.93;3.60;;;16.00;51.90;;;;;;5073525;28;21168;-70
2021/08/23 06:11:44;;;;;;;5.65;3.70;;;16.10;52.10;;;;;;5079757;28;20044;-70
2021/08/23 06:14:33;;;;;;;5.18;3.28;;;16.10;51.20;;;;;;5081573;28;20036;-70
2021/08/23 06:17:21;;;;;;;7.68;3.90;;;16.10;49.90;;;;;;5081474;28;20039;-70
2021/08/23 06:20:12;;;;;;;6.32;3.63;;;16.20;50.80;;;;;;5077962;28;20530;-70
2021/08/23 06:23:00;;;;;;;10.45;4.45;;;16.30;51.20;;;;;;5075813;28;20051;-70
2021/08/23 06:25:48;;;;;;;9.00;3.50;;;16.30;50.90;;;;;;5084549;28;20051;-70
2021/08/23 06:28:37;;;;;;;7.28;3.47;;;16.30;50.40;;;;;;5079302;28;20153;-70
2021/08/23 06:31:25;;;;;;;8.88;4.10;;;16.10;50.00;;;;;;5078347;28;20067;-69
2021/08/23 06:34:14;;;;;;;6.15;4.03;;;16.20;52.00;;;;;;5081814;28;20061;-69
2021/08/23 06:37:04;;;;;;;5.28;3.53;;;16.30;54.10;;;;;;5078771;28;20044;-70
2021/08/23 06:39:52;;;;;;;6.55;3.45;;;16.40;54.10;;;;;;5081020;28;20121;-70
2021/08/23 06:42:41;;;;;;;6.07;3.67;;;16.50;53.30;;;;;;5086099;28;20043;-69
2021/08/23 06:45:29;;;;;;;5.53;3.80;;;16.50;51.20;;;;;;5088305;28;20053;-70
2021/08/23 06:48:18;;;;;;;6.70;3.55;;;16.50;50.70;;;;;;5088422;28;20040;-70
2021/08/23 06:51:06;;;;;;;7.30;3.72;;;16.60;49.50;;;;;;5082823;28;20044;-70
2021/08/23 06:53:58;;;;;;;6.30;4.25;;;16.50;48.10;;;;;;5083942;28;20119;-70
2021/08/23 06:56:47;;;;;;;7.82;3.53;;;16.60;51.20;;;;;;5085251;28;20068;-70
2021/08/23 06:59:35;;;;;;;6.88;3.80;;;16.70;51.30;;;;;;5086249;28;20506;-70
2021/08/23 07:02:23;;;;;;;6.28;3.40;;;16.70;47.70;;;;;;5078848;28;20047;-71
2021/08/23 07:05:16;;;;;;;5.75;3.65;;;16.80;49.30;;;;;;5080640;28;20385;-70
2021/08/23 07:08:04;;;;;;;4.15;3.28;;;16.80;46.10;;;;;;5081946;28;20438;-70
2021/08/23 07:10:56;;;;;;;7.68;3.90;;;16.80;47.60;;;;;;5083327;28;20044;-71
2021/08/23 07:13:44;;;;;;;6.72;3.33;;;16.90;48.70;;;;;;5085200;28;20048;-70
2021/08/23 07:16:32;;;;;;;5.93;3.80;;;17.00;46.40;;;;;;5086041;28;20515;-70
2021/08/23 07:19:21;;;;;;;5.35;3.10;;;16.70;45.80;;;;;;5084594;28;20070;-69
2021/08/23 07:22:15;;;;;;;10.60;4.00;;;16.40;49.90;;;;;;5085511;28;20055;-69
2021/08/23 07:25:03;;;;;;;6.00;3.60;;;16.30;51.00;;;;;;5083374;28;20059;-70
2021/08/23 07:27:53;;;;;;;6.32;3.83;;;16.30;51.70;;;;;;5102657;28;20049;-70
2021/08/23 07:30:42;;;;;;;6.55;3.50;;;16.30;53.90;;;;;;5100531;28;20048;-70
2021/08/23 07:33:31;;;;;;;10.20;4.30;;;16.30;54.00;;;;;;5074653;28;20524;-70
2021/08/23 07:36:20;;;;;;;6.18;3.88;;;16.40;54.90;;;;;;5081469;28;20067;-70
2021/08/23 07:39:08;;;;;;;7.32;3.90;;;16.40;53.70;;;;;;5083489;28;20052;-70
2021/08/23 07:41:57;;;;;;;11.07;4.50;;;16.50;53.90;;;;;;5080292;28;20044;-70
2021/08/23 07:44:47;;;;;;;14.98;4.20;;;16.60;54.70;;;;;;5084024;28;20085;-70
2021/08/23 07:47:35;;;;;;;11.43;4.60;;;16.50;52.50;;;;;;5085439;28;20043;-69
2021/08/23 07:50:23;;;;;;;13.70;4.70;;;16.60;52.60;;;;;;5083136;28;20945;-69
2021/08/23 07:53:12;;;;;;;11.13;4.60;;;16.60;52.80;;;;;;5081006;28;20036;-70
2021/08/23 07:56:00;;;;;;;6.00;4.10;;;16.70;52.70;;;;;;5081457;28;20052;-70
2021/08/23 07:58:48;;;;;;;6.85;3.75;;;16.80;48.70;;;;;;5083035;28;20496;-70
2021/08/23 08:01:49;;;;;;;4.72;4.05;;;16.80;45.00;;;;;;5075677;28;20055;-70
2021/08/23 08:04:39;;;;;;;8.40;4.15;;;16.80;48.70;;;;;;5083598;28;20500;-69
2021/08/23 08:07:27;;;;;;;8.43;4.10;;;16.70;47.90;;;;;;5085063;28;20051;-70
2021/08/23 08:10:16;;;;;;;7.82;4.82;;;17.00;50.80;;;;;;5083209;28;20112;-71
2021/08/23 08:13:06;;;;;;;6.13;4.43;;;17.00;48.90;;;;;;5083885;28;20071;-70
2021/08/23 08:15:54;;;;;;;6.63;4.50;;;16.90;47.30;;;;;;5081817;28;20589;-70
2021/08/23 08:18:44;;;;;;;7.63;3.97;;;17.00;50.20;;;;;;5083416;28;20043;-70
2021/08/23 08:21:32;;;;;;;9.00;4.13;;;16.90;44.90;;;;;;5082886;28;20044;-70
2021/08/23 08:24:21;;;;;;;9.30;4.90;;;17.00;44.30;;;;;;5084009;28;20047;-70
2021/08/23 08:27:10;;;;;;;8.60;4.07;;;17.20;45.40;;;;;;5079788;28;20037;-70
2021/08/23 08:29:58;;;;;;;5.60;3.58;;;17.10;43.10;;;;;;5081658;28;20083;-70
2021/08/23 08:32:47;;;;;;;8.10;4.10;;;17.10;40.70;;;;;;5083262;28;20058;-70
2021/08/23 08:35:38;;;;;;;5.68;3.95;;;17.40;41.80;;;;;;5084244;28;20048;-70
2021/08/23 08:38:27;;;;;;;6.05;3.95;;;17.70;37.60;;;;;;5081536;28;20161;-70
2021/08/23 08:41:15;;;;;;;5.38;3.72;;;17.50;37.40;;;;;;5080846;28;20059;-70
2021/08/23 08:44:04;;;;;;;5.55;4.10;;;17.60;36.10;;;;;;5083022;28;20055;-71
2021/08/23 08:46:55;;;;;;;6.18;3.80;;;17.80;39.40;;;;;;5083310;28;20589;-71
2021/08/23 08:49:44;;;;;;;5.97;3.58;;;17.80;34.10;;;;;;5081729;28;20060;-71
2021/08/23 08:52:34;;;;;;;12.18;3.58;;;17.90;36.70;;;;;;5078992;28;20124;-69
2021/08/23 08:55:23;;;;;;;6.57;3.40;;;17.80;34.80;;;;;;5082310;28;20123;-70
2021/08/23 08:58:11;;;;;;;6.40;3.58;;;17.80;36.70;;;;;;5083536;28;20044;-69
2021/08/23 09:01:01;;;;;;;4.80;3.10;;;17.90;36.70;;;;;;5078900;28;20040;-69
2021/08/23 09:03:49;;;;;;;5.72;3.10;;;18.00;29.40;;;;;;5081639;28;20051;-70
2021/08/23 09:06:42;;;;;;;6.85;3.15;;;17.50;30.70;;;;;;5080940;28;20062;-70
2021/08/23 09:09:32;;;;;;;4.97;3.47;;;17.80;27.40;;;;;;5081348;28;20047;-70
2021/08/23 09:12:22;;;;;;;6.30;3.58;;;18.10;31.00;;;;;;5079609;28;20044;-70
2021/08/23 09:15:11;;;;;;;6.40;3.40;;;18.30;30.80;;;;;;5080659;28;20388;-70
2021/08/23 09:18:03;;;;;;;6.35;3.40;;;18.10;31.60;;;;;;5081417;28;20490;-70
2021/08/23 09:20:59;;;;;;;4.63;3.28;;;18.50;29.20;;;;;;5081845;28;20052;-70
2021/08/23 09:23:49;;;;;;;9.60;3.65;;;18.30;27.70;;;;;;5080014;28;20453;-70
2021/08/23 09:26:38;;;;;;;6.28;3.58;;;18.50;28.30;;;;;;5080774;28;20052;-70
2021/08/23 09:29:27;;;;;;;5.55;3.47;;;18.50;25.10;;;;;;5079095;28;20063;-70
2021/08/23 09:32:18;;;;;;;7.65;3.30;;;18.50;27.20;;;;;;5081621;28;20044;-68
2021/08/23 09:35:07;;;;;;;6.25;3.42;;;18.60;26.00;;;;;;5083079;28;20067;-70
2021/08/23 09:37:55;;;;;;;4.47;3.28;;;18.80;23.00;;;;;;5081402;28;20044;-70
2021/08/23 09:40:44;;;;;;;4.57;3.13;;;18.70;22.80;;;;;;5079135;28;20126;-70
2021/08/23 09:43:35;;;;;;;4.53;3.10;;;18.60;24.30;;;;;;5067903;28;20407;-70
2021/08/23 09:46:24;;;;;;;3.92;3.10;;;18.60;23.40;;;;;;5082717;28;20040;-70
2021/08/23 09:49:14;;;;;;;6.18;3.28;;;18.40;23.00;;;;;;5081436;28;20217;-70
2021/08/23 09:52:03;;;;;;;6.07;3.22;;;18.80;23.50;;;;;;5077045;28;20050;-70
2021/08/23 09:55:01;;;;;;;4.97;2.67;;;19.00;22.20;;;;;;5082205;28;20775;-70
2021/08/23 09:57:49;;;;;;;3.05;2.53;;;18.70;21.00;;;;;;5084154;28;20040;-70
2021/08/23 10:00:42;;;;;;;3.55;2.80;;;18.70;21.00;;;;;;5077043;28;20055;-70
2021/08/23 10:03:31;;;;;;;3.60;2.50;;;18.90;20.10;;;;;;5080010;28;20067;-70
2021/08/23 10:06:37;;;;;;;3.10;2.60;;;18.90;19.00;;;;;;5082435;28;20137;-70
2021/08/23 10:09:27;;;;;;;4.30;2.72;;;19.30;19.00;;;;;;5081286;28;20051;-71
2021/08/23 10:12:16;;;;;;;4.30;2.30;;;18.70;17.50;;;;;;5082054;28;20185;-71
2021/08/23 10:15:06;;;;;;;4.53;2.55;;;18.70;17.20;;;;;;5081867;28;20047;-71
2021/08/23 10:17:56;;;;;;;5.03;2.17;;;18.80;18.60;;;;;;5085804;28;20048;-71
2021/08/23 10:20:45;;;;;;;4.18;2.10;;;18.90;14.90;;;;;;5082903;28;20036;-70
2021/08/23 10:23:33;;;;;;;2.33;2.08;;;19.00;15.20;;;;;;5084916;28;20040;-71
2021/08/23 10:26:22;;;;;;;2.80;2.15;;;19.10;14.00;;;;;;5085449;28;20103;-70
2021/08/23 10:29:13;;;;;;;4.95;2.35;;;19.40;14.20;;;;;;5085855;28;20051;-70
2021/08/23 10:32:07;;;;;;;2.72;2.40;;;19.50;13.70;;;;;;5084747;28;20441;-70
2021/08/23 10:34:57;;;;;;;2.83;2.40;;;19.00;12.50;;;;;;5088732;28;20403;-69
2021/08/23 10:37:46;;;;;;;4.75;2.55;;;19.20;14.10;;;;;;5080677;28;20052;-70
2021/08/23 10:40:36;;;;;;;3.22;2.45;;;19.00;15.60;;;;;;5085115;28;20066;-70
2021/08/23 10:43:26;;;;;;;2.45;1.90;;;19.10;14.00;;;;;;5083069;28;20052;-70
2021/08/23 10:46:23;;;;;;;3.33;1.83;;;18.90;12.50;;;;;;5087809;28;20048;-70
2021/08/23 10:49:16;;;;;;;3.00;1.90;;;19.00;11.00;;;;;;5083428;28;20047;-70
2021/08/23 10:52:07;;;;;;;4.05;1.67;;;18.70;11.90;;;;;;5082771;28;20423;-70
2021/08/23 10:54:58;;;;;;;4.15;1.90;;;18.90;12.40;;;;;;5082666;28;20380;-71
2021/08/23 10:58:02;;;;;;;2.30;2.10;;;19.30;12.50;;;;;;5084799;28;20506;-71
2021/08/23 11:00:50;;;;;;;1.83;1.48;;;19.50;13.60;;;;;;5069963;28;20123;-71
2021/08/23 11:03:39;;;;;;;2.67;2.15;;;18.90;11.10;;;;;;5064808;28;20047;-71
2021/08/23 11:06:28;;;;;;;2.88;1.92;;;19.30;11.70;;;;;;5087010;28;20044;-71
2021/08/23 11:09:17;;;;;;;5.68;2.10;;;19.00;12.50;;;;;;5083253;28;20059;-72
2021/08/23 11:12:17;;;;;;;3.05;2.30;;;19.00;12.20;;;;;;5086666;28;20048;-71
2021/08/23 11:15:14;;;;;;;2.97;1.80;;;18.90;13.40;;;;;;5089525;28;20123;-70
2021/08/23 11:18:08;;;;;;;2.70;1.75;;;19.00;12.70;;;;;;5068569;28;20033;-71
2021/08/23 11:20:57;;;;;;;2.35;2.15;;;19.50;12.00;;;;;;5085867;28;20427;-71
2021/08/23 11:23:46;;;;;;;2.78;1.73;;;19.50;6.80;;;;;;5091256;28;20071;-71
2021/08/23 11:26:37;;;;;;;4.32;1.88;;;19.40;9.80;;;;;;5086823;28;20059;-72
2021/08/23 11:29:26;;;;;;;5.00;2.25;;;19.80;8.70;;;;;;5088383;28;20052;-71
2021/08/23 11:32:14;;;;;;;3.42;2.00;;;19.40;9.40;;;;;;5083137;28;20056;-71
2021/08/23 11:35:04;;;;;;;3.85;1.90;;;19.60;7.10;;;;;;5085640;28;20182;-71
2021/08/23 11:37:58;;;;;;;2.15;1.70;;;19.80;6.90;;;;;;5088663;28;21236;-72
2021/08/23 11:40:47;;;;;;;1.60;1.50;;;20.50;6.60;;;;;;5082271;28;20059;-72
2021/08/23 11:43:37;;;;;;;2.53;1.95;;;20.30;4.70;;;;;;5088327;28;20514;-72
2021/08/23 11:46:25;;;;;;;2.90;1.73;;;20.00;4.10;;;;;;5085180;28;20044;-71
2021/08/23 11:49:14;;;;;;;2.90;1.90;;;19.80;5.40;;;;;;5087671;28;20125;-72
2021/08/23 11:52:12;;;;;;;3.20;1.90;;;20.10;4.70;;;;;;5083278;28;20422;-70
2021/08/23 11:55:00;;;;;;;3.05;1.90;;;20.20;4.10;;;;;;5086242;28;20483;-72
2021/08/23 11:57:57;;;;;;;3.00;2.30;;;19.90;3.50;;;;;;5086030;28;20056;-71
2021/08/23 12:01:01;;;;;;;2.63;1.65;;;20.00;3.90;;;;;;5087551;28;20055;-71
2021/08/23 12:03:58;;;;;;;4.53;1.70;;;19.90;3.20;;;;;;5087380;28;20051;-71
2021/08/23 12:06:46;;;;;;;5.75;2.05;;;20.30;3.50;;;;;;5082856;28;20058;-71
2021/08/23 12:09:35;;;;;;;2.88;1.70;;;20.50;4.60;;;;;;5085668;28;20427;-71
2021/08/23 12:12:23;;;;;;;2.28;1.67;;;20.30;2.90;;;;;;5084355;28;20415;-71
2021/08/23 12:15:12;;;;;;;3.15;1.80;;;21.30;1.00;;;;;;5087059;28;20052;-71
2021/08/23 12:18:10;;;;;;;2.58;1.73;;;20.70;1.00;;;;;;5086963;28;20051;-71
2021/08/23 12:21:11;;;;;;;4.55;1.85;;;20.60;1.80;;;;;;5081631;28;20066;-71
2021/08/23 12:24:02;;;;;;;3.15;1.67;;;20.60;1.10;;;;;;5088959;28;20654;-71
2021/08/23 12:26:57;;;;;;;5.88;1.65;;;20.50;1.00;;;;;;5089466;28;20059;-72
2021/08/23 12:29:46;;;;;;;8.57;2.10;;;20.50;1.00;;;;;;5085431;28;20054;-72
2021/08/23 12:32:35;;;;;;;5.95;2.15;;;20.70;2.90;;;;;;5084761;28;20043;-72
2021/08/23 12:35:30;;;;;;;2.10;1.83;;;21.30;1.90;;;;;;5086124;28;20162;-72
2021/08/23 12:38:18;;;;;;;2.25;1.45;;;21.10;1.00;;;;;;5085600;28;20051;-71
2021/08/23 12:41:07;;;;;;;1.80;1.70;;;21.00;1.00;;;;;;5082885;28;20447;-71
2021/08/23 12:43:56;;;;;;;3.55;2.30;;;21.00;1.00;;;;;;5067979;28;20051;-72
2021/08/23 12:46:44;;;;;;;2.05;1.70;;;20.50;1.60;;;;;;5082966;28;20048;-74
2021/08/23 12:49:33;;;;;;;3.58;1.75;;;21.10;1.00;;;;;;5085418;28;20499;-73
2021/08/23 12:52:23;;;;;;;2.13;1.92;;;21.40;1.00;;;;;;5083857;28;20056;-72
2021/08/23 12:55:11;;;;;;;2.97;2.00;;;20.80;1.00;;;;;;5085939;28;20391;-72
2021/08/23 12:57:59;;;;;;;2.92;2.33;;;21.00;1.00;;;;;;5078919;28;20044;-72
2021/08/23 13:00:50;;;;;;;2.58;2.00;;;20.90;1.00;;;;;;5084393;28;20055;-73
2021/08/23 13:03:38;;;;;;;2.90;1.75;;;20.90;1.00;;;;;;5062521;28;20048;-72
2021/08/23 13:06:27;;;;;;;2.03;1.80;;;21.20;1.00;;;;;;5089006;28;20352;-73
2021/08/23 13:09:16;;;;;;;3.72;2.20;;;20.60;1.00;;;;;;5088559;28;20048;-73
2021/08/23 13:12:06;;;;;;;2.13;1.60;;;21.30;1.00;;;;;;5087681;28;20043;-73
2021/08/23 13:14:54;;;;;;;3.10;2.00;;;21.80;1.00;;;;;;5088719;28;20063;-73
2021/08/23 13:17:42;;;;;;;3.58;2.00;;;21.10;1.00;;;;;;5085967;28;20051;-73
2021/08/23 13:20:31;;;;;;;2.90;2.08;;;21.10;1.00;;;;;;5084827;28;20052;-73
2021/08/23 13:23:23;;;;;;;3.65;2.00;;;21.70;1.00;;;;;;5071327;28;20533;-73
2021/08/23 13:26:13;;;;;;;2.40;2.00;;;21.50;1.00;;;;;;5087407;28;20039;-74
2021/08/23 13:29:01;;;;;;;2.85;2.20;;;21.50;1.00;;;;;;5081813;28;20055;-73
2021/08/23 13:31:50;;;;;;;3.42;2.22;;;22.00;1.00;;;;;;5087545;28;20075;-74
2021/08/23 13:34:38;;;;;;;3.58;2.33;;;22.10;1.00;;;;;;5086122;28;20055;-73
2021/08/23 13:37:26;;;;;;;6.85;2.60;;;22.00;1.00;;;;;;5086067;28;20055;-74
2021/08/23 13:40:15;;;;;;;2.30;2.10;;;21.40;1.00;;;;;;5082201;28;20499;-74
2021/08/23 13:43:05;;;;;;;6.40;2.05;;;21.80;1.00;;;;;;5084606;28;20078;-73
2021/08/23 13:45:55;;;;;;;2.65;2.42;;;21.90;1.00;;;;;;5086574;28;20043;-74
2021/08/23 13:48:43;;;;;;;3.03;2.65;;;21.60;1.00;;;;;;5089855;28;20047;-74
2021/08/23 13:51:32;;;;;;;2.50;2.30;;;21.90;1.00;;;;;;5069182;28;20579;-73
2021/08/23 13:54:20;;;;;;;3.28;2.20;;;21.90;1.00;;;;;;5087630;28;20055;-74
2021/08/23 13:57:09;;;;;;;3.45;2.63;;;21.90;1.00;;;;;;5074317;28;20047;-74
2021/08/23 13:59:58;;;;;;;4.13;2.50;;;21.30;1.00;;;;;;5086063;28;20044;-74
2021/08/23 14:02:48;;;;;;;3.50;2.30;;;21.80;1.00;;;;;;5065588;28;20049;-74
2021/08/23 14:05:36;;;;;;;3.50;2.20;;;22.30;1.00;;;;;;5043543;28;20625;-74
2021/08/23 14:08:25;;;;;;;2.58;2.15;;;22.20;1.00;;;;;;5065429;28;20041;-74
2021/08/23 14:11:14;;;;;;;3.40;2.47;;;22.00;1.00;;;;;;5064069;28;20055;-73
2021/08/23 14:14:03;;;;;;;3.55;2.55;;;21.90;1.00;;;;;;5067898;28;20048;-73
2021/08/23 14:16:52;;;;;;;2.70;2.30;;;21.80;1.00;;;;;;5071378;28;20036;-74
2021/08/23 14:19:41;;;;;;;2.53;2.20;;;22.40;1.00;;;;;;5066939;28;20043;-73
2021/08/23 14:22:29;;;;;;;2.78;2.00;;;22.10;1.00;;;;;;5064155;28;20048;-73
2021/08/23 14:25:17;;;;;;;2.38;2.10;;;22.60;1.00;;;;;;5066852;28;20041;-73
2021/08/23 14:28:06;;;;;;;3.63;2.25;;;22.70;1.00;;;;;;5051716;28;63288;-74
2021/08/23 14:30:54;;;;;;;2.33;2.08;;;22.20;1.00;;;;;;5045962;28;20126;-75
2021/08/23 14:33:44;;;;;;;3.05;2.00;;;22.50;1.00;;;;;;5048120;28;20047;-75
2021/08/23 14:39:00;;;;;;;2.38;1.98;;;22.00;1.00;;;;;;5046177;28;20452;-72
2021/08/23 14:41:48;;;;;;;2.55;2.00;;;22.00;1.00;;;;;;5037209;28;20083;-75
2021/08/23 14:46:32;;;;;;;2.38;2.13;;;22.00;1.00;;;;;;5087961;27;20132;-73
2021/08/23 14:49:04;;;;;;;2.88;2.50;;;22.20;1.00;;;;;;5099632;27;20518;-74